Wakarusa, Indiana
Current Conditions -  °F | °C
As of 8:05 PM on Saturday 22 Nov 2014 (Local Time) from KGSH Reporting Station
Overcast Overcast  
Wind Chill: 44°   Ceiling: 3000
Heat Index: 49°   Visibility: 10mi
Dew Point: 44°   Wind: 13mph
Humidity: 83%   Direction: 200°SSW
Pressure: 29.94"   Gusts: NA
Location:  41.54°N, 86.02°W
Report Text: KGSH 230105Z AUTO 20011KT 10SM OVC030 09/07 A2994 RMK AO2 RAE02 P0000 T00940067
Loading
Personal Weather Stations






























Interactive Weather Map New forecast layout! Learn more

10-Day Weather Forecast

Advertisements
Track Severe Weather on mobile